Time;durP1;ratioP1;P1;durP2;ratioP2;P2;SDS_P1;SDS_P2;PMS_P1;PMS_P2;Temp;Humidity;BMP_temperature;BMP_pressure;BME280_temperature;BME280_humidity;BME280_pressure;Samples;Min_cycle;Max_cycle;Signal;HPM_P1;HPM_P2
2023/11/22 00:01:12;;;;;;;13.85;7.40;;;5.10;99.90;;;;;;5012615;28;20050;-76
2023/11/22 00:03:37;;;;;;;11.65;6.97;;;5.10;99.90;;;;;;5012924;28;20092;-76
2023/11/22 00:06:04;;;;;;;12.15;7.47;;;5.20;99.90;;;;;;5012426;28;20041;-77
2023/11/22 00:08:30;;;;;;;13.20;8.13;;;5.10;99.90;;;;;;5012604;28;20044;-77
2023/11/22 00:10:55;;;;;;;12.25;7.20;;;5.10;99.90;;;;;;5013764;28;20034;-76
2023/11/22 00:13:21;;;;;;;11.75;7.07;;;5.10;99.90;;;;;;5012385;28;20042;-76
2023/11/22 00:15:47;;;;;;;12.55;7.05;;;5.10;99.90;;;;;;5012071;28;20478;-76
2023/11/22 00:18:12;;;;;;;11.63;7.05;;;5.00;99.90;;;;;;5012779;28;20462;-77
2023/11/22 00:20:39;;;;;;;14.73;8.15;;;5.00;99.90;;;;;;5012310;28;20512;-76
2023/11/22 00:23:05;;;;;;;12.23;7.03;;;4.90;99.90;;;;;;5012237;28;20042;-76
2023/11/22 00:25:30;;;;;;;13.50;7.70;;;5.00;99.90;;;;;;5011797;28;20045;-76
2023/11/22 00:27:56;;;;;;;14.07;7.70;;;4.90;99.90;;;;;;5012366;28;20045;-77
2023/11/22 00:30:23;;;;;;;13.38;7.90;;;5.00;99.90;;;;;;5011958;28;20038;-77
2023/11/22 00:32:48;;;;;;;13.80;8.38;;;4.90;99.90;;;;;;5011967;28;20049;-76
2023/11/22 00:35:14;;;;;;;13.60;7.50;;;4.90;99.90;;;;;;4995245;28;20046;-76
2023/11/22 00:37:40;;;;;;;10.27;6.38;;;4.90;99.90;;;;;;5012116;28;20033;-76
2023/11/22 00:40:10;;;;;;;11.75;7.13;;;5.00;99.90;;;;;;5011776;28;20045;-76
2023/11/22 00:42:41;;;;;;;11.65;7.63;;;5.00;99.90;;;;;;5011840;28;20567;-77
2023/11/22 00:45:07;;;;;;;14.27;7.20;;;5.00;99.90;;;;;;5011500;28;20050;-76
2023/11/22 00:47:33;;;;;;;10.25;6.85;;;5.00;99.90;;;;;;4994292;28;20512;-76
2023/11/22 00:49:59;;;;;;;12.98;5.90;;;5.00;99.90;;;;;;4995415;28;20042;-76
2023/11/22 00:52:25;;;;;;;11.55;6.80;;;4.90;99.90;;;;;;4995479;28;20061;-76
2023/11/22 00:54:50;;;;;;;10.20;6.25;;;5.00;99.90;;;;;;5012932;28;20046;-76
2023/11/22 00:57:16;;;;;;;10.23;6.60;;;4.90;99.90;;;;;;5011428;28;20176;-76
2023/11/22 00:59:42;;;;;;;10.73;6.75;;;4.90;99.90;;;;;;4995234;28;20052;-77
2023/11/22 01:02:08;;;;;;;13.55;7.25;;;4.80;99.90;;;;;;5011680;28;20472;-76
2023/11/22 01:04:36;;;;;;;12.15;6.70;;;4.80;99.90;;;;;;5011665;28;20414;-77
2023/11/22 01:07:04;;;;;;;12.65;6.57;;;4.80;99.90;;;;;;5011429;28;20034;-76
2023/11/22 01:09:31;;;;;;;10.00;6.68;;;4.70;99.90;;;;;;5011417;28;20084;-76
2023/11/22 01:11:57;;;;;;;12.40;6.45;;;4.70;99.90;;;;;;5012042;28;20087;-76
2023/11/22 01:14:23;;;;;;;11.93;7.55;;;4.60;99.90;;;;;;5011651;28;20038;-76
2023/11/22 01:16:49;;;;;;;13.02;6.88;;;4.60;99.90;;;;;;4994916;28;20068;-76
2023/11/22 01:19:15;;;;;;;12.13;6.80;;;4.60;99.90;;;;;;5011263;28;20549;-76
2023/11/22 01:21:44;;;;;;;12.43;6.15;;;4.60;99.90;;;;;;5011478;28;20077;-76
2023/11/22 01:24:09;;;;;;;14.02;6.57;;;4.50;99.90;;;;;;5011605;28;20488;-76
2023/11/22 01:26:35;;;;;;;12.10;6.55;;;4.50;99.90;;;;;;5010888;28;20042;-76
2023/11/22 01:29:02;;;;;;;11.45;6.45;;;4.30;99.90;;;;;;5011105;28;20037;-76
2023/11/22 01:31:27;;;;;;;12.05;6.95;;;4.40;99.90;;;;;;5010985;28;20071;-76
2023/11/22 01:33:54;;;;;;;13.05;6.15;;;4.30;99.90;;;;;;4995558;28;20045;-76
2023/11/22 01:36:20;;;;;;;12.30;6.82;;;4.40;99.90;;;;;;5010970;28;20042;-77
2023/11/22 01:38:46;;;;;;;15.10;6.60;;;4.30;99.90;;;;;;4994840;28;20041;-77
2023/11/22 01:41:15;;;;;;;13.93;7.15;;;4.30;99.90;;;;;;5010868;28;20048;-77
2023/11/22 01:43:41;;;;;;;12.00;6.30;;;4.30;99.90;;;;;;5011259;28;20046;-77
2023/11/22 01:46:23;;;;;;;11.55;6.43;;;4.30;99.90;;;;;;5010866;28;20124;-76
2023/11/22 01:48:49;;;;;;;11.35;7.68;;;4.20;99.90;;;;;;5011094;28;20080;-76
2023/11/22 01:51:15;;;;;;;12.07;6.25;;;4.20;99.90;;;;;;5010726;28;20037;-77
2023/11/22 01:53:42;;;;;;;12.57;6.95;;;4.20;99.90;;;;;;5010967;28;20045;-76
2023/11/22 01:56:09;;;;;;;12.55;6.60;;;4.20;99.90;;;;;;5010511;28;20049;-76
2023/11/22 01:58:35;;;;;;;12.30;6.72;;;4.20;99.90;;;;;;5010344;28;20054;-76
2023/11/22 02:01:02;;;;;;;13.82;7.60;;;4.10;99.90;;;;;;5011020;28;20042;-77
2023/11/22 02:03:27;;;;;;;12.05;7.50;;;4.10;99.90;;;;;;5010678;28;20050;-76
2023/11/22 02:05:54;;;;;;;13.13;6.28;;;4.10;99.90;;;;;;5010681;28;20049;-76
2023/11/22 02:08:19;;;;;;;11.10;6.22;;;4.10;99.90;;;;;;4994369;28;20157;-75
2023/11/22 02:10:49;;;;;;;11.13;5.75;;;4.00;99.90;;;;;;5010557;28;20123;-77
2023/11/22 02:13:14;;;;;;;12.00;6.57;;;4.00;99.90;;;;;;5010574;28;20052;-76
2023/11/22 02:15:40;;;;;;;11.85;6.75;;;4.00;99.90;;;;;;5010530;28;20124;-76
2023/11/22 02:18:06;;;;;;;11.27;6.20;;;3.90;99.90;;;;;;5011876;28;20038;-76
2023/11/22 02:20:32;;;;;;;12.90;7.47;;;3.90;99.90;;;;;;5011513;28;20540;-76
2023/11/22 02:23:07;;;;;;;13.60;6.95;;;3.90;99.90;;;;;;5010500;28;20069;-76
2023/11/22 02:25:33;;;;;;;12.55;6.97;;;4.00;99.90;;;;;;5010049;28;20050;-76
2023/11/22 02:27:59;;;;;;;11.55;6.78;;;3.90;99.90;;;;;;5010656;28;20480;-76
2023/11/22 02:30:25;;;;;;;11.50;7.50;;;3.80;99.90;;;;;;5010414;28;20073;-77
2023/11/22 02:32:51;;;;;;;12.52;7.90;;;3.90;99.90;;;;;;5010411;28;20109;-76
2023/11/22 02:35:17;;;;;;;12.80;7.70;;;3.80;99.90;;;;;;5010360;28;20056;-76
2023/11/22 02:37:45;;;;;;;12.50;6.22;;;3.80;99.90;;;;;;5010878;28;20461;-77
2023/11/22 02:40:21;;;;;;;9.98;5.80;;;3.80;99.90;;;;;;5010286;28;20524;-76
2023/11/22 02:43:05;;;;;;;12.10;6.28;;;3.80;99.90;;;;;;5010619;28;20057;-77
2023/11/22 02:45:30;;;;;;;11.20;6.68;;;3.70;99.90;;;;;;5009718;28;20073;-76
2023/11/22 02:47:56;;;;;;;13.13;7.00;;;3.80;99.90;;;;;;5004209;28;20073;-77
2023/11/22 02:50:22;;;;;;;13.10;7.93;;;3.80;99.90;;;;;;4999684;28;20039;-77
2023/11/22 02:52:47;;;;;;;11.20;6.63;;;3.70;99.90;;;;;;4999240;28;20417;-76
2023/11/22 02:55:14;;;;;;;10.60;6.50;;;3.70;99.90;;;;;;5010056;28;20049;-77
2023/11/22 02:57:40;;;;;;;11.80;6.32;;;3.70;99.90;;;;;;5010489;28;20050;-76
2023/11/22 03:00:07;;;;;;;13.30;7.47;;;3.70;99.90;;;;;;5010337;28;20628;-77
2023/11/22 03:02:33;;;;;;;13.82;6.68;;;3.80;99.90;;;;;;5010248;28;20064;-76
2023/11/22 03:04:59;;;;;;;15.63;7.57;;;3.80;99.90;;;;;;4985299;28;20424;-75
2023/11/22 03:07:28;;;;;;;14.75;7.30;;;3.70;99.90;;;;;;5010350;28;20121;-77
2023/11/22 03:09:53;;;;;;;13.25;7.35;;;3.70;99.90;;;;;;5010246;28;20382;-77
2023/11/22 03:12:20;;;;;;;13.38;6.95;;;3.70;99.90;;;;;;5005106;28;20124;-77
2023/11/22 03:14:46;;;;;;;15.50;6.68;;;3.70;99.90;;;;;;5013736;28;20044;-77
2023/11/22 03:17:13;;;;;;;9.48;5.82;;;3.60;99.90;;;;;;5013318;28;20042;-76
2023/11/22 03:19:39;;;;;;;11.95;6.45;;;3.70;99.90;;;;;;5013343;28;20073;-76
2023/11/22 03:22:06;;;;;;;11.80;6.80;;;3.60;99.90;;;;;;5014566;28;20084;-76
2023/11/22 03:24:34;;;;;;;11.70;6.57;;;3.60;99.90;;;;;;5013247;28;20411;-76
2023/11/22 03:27:01;;;;;;;14.50;6.68;;;3.60;99.90;;;;;;5013095;28;20042;-76
2023/11/22 03:29:27;;;;;;;10.40;5.93;;;3.60;99.90;;;;;;5013572;28;20440;-76
2023/11/22 03:31:53;;;;;;;11.20;6.38;;;3.60;99.90;;;;;;5013153;28;20051;-77
2023/11/22 03:34:19;;;;;;;11.32;6.47;;;3.50;99.90;;;;;;5013279;28;20042;-77
2023/11/22 03:36:45;;;;;;;12.30;6.38;;;3.50;99.90;;;;;;5012814;28;20099;-76
2023/11/22 03:39:11;;;;;;;12.68;7.07;;;3.60;99.90;;;;;;5013056;28;20042;-76
2023/11/22 03:41:37;;;;;;;9.80;6.20;;;3.60;99.90;;;;;;5013169;28;20053;-77
2023/11/22 03:44:04;;;;;;;12.63;7.00;;;3.60;99.90;;;;;;5013335;28;20064;-77
2023/11/22 03:46:30;;;;;;;12.25;7.25;;;3.60;99.90;;;;;;5012943;28;20491;-76
2023/11/22 03:48:56;;;;;;;12.57;6.55;;;3.60;99.90;;;;;;5012810;28;20509;-76
2023/11/22 03:51:21;;;;;;;14.48;6.93;;;3.70;99.90;;;;;;5012920;28;20038;-76
2023/11/22 03:53:47;;;;;;;11.68;6.85;;;3.70;99.90;;;;;;5012801;28;20416;-76
2023/11/22 03:56:12;;;;;;;11.52;6.88;;;3.60;99.90;;;;;;5012618;28;20394;-76
2023/11/22 03:58:40;;;;;;;12.98;6.95;;;3.60;99.90;;;;;;5012956;28;20045;-76
2023/11/22 04:01:05;;;;;;;10.27;6.65;;;3.60;99.90;;;;;;5010644;28;20041;-76
2023/11/22 04:03:32;;;;;;;13.38;6.57;;;3.50;99.90;;;;;;5006619;28;20045;-76
2023/11/22 04:05:57;;;;;;;10.77;7.05;;;3.50;99.90;;;;;;5012616;28;20077;-76
2023/11/22 04:08:23;;;;;;;12.27;6.82;;;3.50;99.90;;;;;;5012957;28;20616;-76
2023/11/22 04:10:49;;;;;;;12.10;7.28;;;3.50;99.90;;;;;;4996124;28;20069;-76
2023/11/22 04:13:15;;;;;;;11.55;6.43;;;3.50;99.90;;;;;;5012683;28;20145;-76
2023/11/22 04:15:40;;;;;;;9.57;6.22;;;3.40;99.90;;;;;;5012091;28;20038;-76
2023/11/22 04:18:06;;;;;;;8.55;5.90;;;3.40;99.90;;;;;;5012478;28;20041;-76
2023/11/22 04:20:32;;;;;;;10.20;6.38;;;3.40;99.90;;;;;;5012468;28;20046;-77
2023/11/22 04:22:58;;;;;;;12.43;6.78;;;3.40;99.90;;;;;;5012885;28;20519;-77
2023/11/22 04:25:23;;;;;;;11.25;7.10;;;3.40;99.90;;;;;;5011996;28;20054;-77
2023/11/22 04:27:49;;;;;;;9.65;6.13;;;3.30;99.90;;;;;;5012250;28;20044;-77
2023/11/22 04:30:17;;;;;;;11.55;6.43;;;3.30;99.90;;;;;;5012243;28;20077;-77
2023/11/22 04:32:44;;;;;;;13.60;7.13;;;3.30;99.90;;;;;;4995865;28;20038;-76
2023/11/22 04:35:13;;;;;;;9.52;6.72;;;3.20;99.90;;;;;;5011878;28;20088;-76
2023/11/22 04:37:38;;;;;;;11.80;6.45;;;3.20;99.90;;;;;;5013408;28;20052;-76
2023/11/22 04:40:07;;;;;;;9.52;6.43;;;3.20;99.90;;;;;;5012890;28;20120;-77
2023/11/22 04:42:35;;;;;;;14.48;7.60;;;3.20;99.90;;;;;;5013171;28;20382;-77
2023/11/22 04:45:01;;;;;;;14.45;6.90;;;3.30;99.90;;;;;;5011614;28;20046;-77
2023/11/22 04:47:26;;;;;;;11.52;6.25;;;3.30;99.90;;;;;;5011926;28;20056;-77
2023/11/22 04:49:52;;;;;;;11.32;6.95;;;3.20;99.90;;;;;;5011958;28;20069;-76
2023/11/22 04:52:17;;;;;;;11.85;6.22;;;3.10;99.90;;;;;;5012202;28;20034;-77
2023/11/22 04:54:43;;;;;;;10.80;6.65;;;3.10;99.90;;;;;;5011550;28;20048;-76
2023/11/22 04:57:08;;;;;;;11.40;6.22;;;3.10;99.90;;;;;;5011413;28;20046;-77
2023/11/22 04:59:34;;;;;;;8.82;5.25;;;3.10;99.90;;;;;;5012205;28;20053;-77
2023/11/22 05:01:59;;;;;;;11.15;6.15;;;3.10;99.90;;;;;;5011669;28;20052;-77
2023/11/22 05:04:26;;;;;;;10.52;5.85;;;3.20;99.90;;;;;;4995660;28;20038;-77
2023/11/22 05:06:53;;;;;;;8.40;5.07;;;3.10;99.90;;;;;;5011258;28;20076;-77
2023/11/22 05:09:18;;;;;;;9.70;5.93;;;3.00;99.90;;;;;;5011599;28;20034;-76
2023/11/22 05:11:47;;;;;;;9.90;5.63;;;3.10;99.90;;;;;;5011583;28;20062;-76
2023/11/22 05:14:13;;;;;;;8.85;5.70;;;3.10;99.90;;;;;;4995944;28;20121;-77
2023/11/22 05:16:39;;;;;;;11.10;5.90;;;3.00;99.90;;;;;;5011958;28;20628;-77
2023/11/22 05:19:05;;;;;;;12.48;6.22;;;3.10;99.90;;;;;;5001704;28;20042;-77
2023/11/22 05:21:32;;;;;;;9.90;6.10;;;3.10;99.90;;;;;;4991431;28;20057;-77
2023/11/22 05:23:58;;;;;;;11.10;5.72;;;3.00;99.90;;;;;;4991853;28;20050;-77
2023/11/22 05:26:23;;;;;;;9.02;5.53;;;3.00;99.90;;;;;;4991333;28;20564;-77
2023/11/22 05:28:49;;;;;;;10.30;5.50;;;3.00;99.90;;;;;;4991407;28;20046;-76
2023/11/22 05:31:14;;;;;;;10.30;6.20;;;3.10;99.90;;;;;;4991660;28;20046;-77
2023/11/22 05:33:40;;;;;;;13.40;6.63;;;3.10;99.90;;;;;;4991042;28;20034;-76
2023/11/22 05:36:06;;;;;;;11.95;6.82;;;3.10;99.90;;;;;;4991467;28;20421;-77
2023/11/22 05:38:35;;;;;;;15.27;8.73;;;3.00;99.90;;;;;;4991642;28;20046;-77
2023/11/22 05:41:01;;;;;;;13.43;7.07;;;3.00;99.90;;;;;;4991527;28;20042;-77
2023/11/22 05:43:27;;;;;;;11.52;6.78;;;3.00;99.90;;;;;;4991579;28;20688;-77
2023/11/22 05:45:55;;;;;;;10.73;6.53;;;3.00;99.90;;;;;;4991559;28;20047;-77
2023/11/22 05:48:21;;;;;;;12.00;5.70;;;2.90;99.90;;;;;;4991506;28;20046;-77
2023/11/22 05:50:47;;;;;;;9.43;5.82;;;3.10;99.90;;;;;;4975264;28;20046;-77
2023/11/22 05:53:19;;;;;;;8.80;4.63;;;3.00;99.90;;;;;;4991802;28;20076;-76
2023/11/22 05:55:47;;;;;;;11.25;5.63;;;2.90;99.90;;;;;;4991381;28;20046;-77
2023/11/22 05:58:16;;;;;;;8.75;5.35;;;3.00;99.90;;;;;;4992094;28;20054;-77
2023/11/22 06:00:43;;;;;;;9.55;4.63;;;2.90;99.90;;;;;;4991657;28;20082;-77
2023/11/22 06:03:08;;;;;;;8.02;4.47;;;3.00;99.90;;;;;;4991031;28;20046;-77
2023/11/22 06:05:34;;;;;;;8.63;4.57;;;2.80;99.90;;;;;;4990872;28;20053;-77
2023/11/22 06:07:59;;;;;;;7.88;4.57;;;2.90;99.90;;;;;;4991525;28;20418;-76
2023/11/22 06:10:26;;;;;;;6.47;4.45;;;3.00;99.90;;;;;;4991060;28;20421;-77
2023/11/22 06:12:52;;;;;;;4.43;3.15;;;2.90;99.90;;;;;;4991179;28;20049;-76
2023/11/22 06:15:20;;;;;;;5.70;3.72;;;2.90;99.90;;;;;;4992280;28;20402;-77
2023/11/22 06:17:47;;;;;;;5.15;3.67;;;2.90;99.90;;;;;;4991089;28;20049;-77
2023/11/22 06:20:13;;;;;;;4.85;3.10;;;2.90;99.90;;;;;;4991082;28;20410;-77
2023/11/22 06:22:40;;;;;;;5.85;3.63;;;3.00;99.90;;;;;;4991529;28;20042;-77
2023/11/22 06:25:13;;;;;;;5.57;3.55;;;2.90;99.90;;;;;;4990679;28;20039;-77
2023/11/22 06:27:40;;;;;;;5.80;4.15;;;2.90;99.90;;;;;;4974703;28;20042;-77
2023/11/22 06:30:06;;;;;;;9.43;4.57;;;2.80;99.90;;;;;;4975077;28;20061;-76
2023/11/22 06:32:32;;;;;;;8.60;4.82;;;2.80;99.90;;;;;;4990763;28;20045;-77
2023/11/22 06:34:57;;;;;;;8.48;5.68;;;2.80;99.90;;;;;;4991124;28;20568;-76
2023/11/22 06:37:23;;;;;;;8.57;5.25;;;2.80;99.90;;;;;;4990606;28;20066;-77
2023/11/22 06:39:50;;;;;;;10.48;6.22;;;2.80;99.90;;;;;;4990735;28;20047;-77
2023/11/22 06:42:16;;;;;;;9.45;5.85;;;2.90;99.90;;;;;;4990845;28;20042;-77
2023/11/22 06:44:42;;;;;;;11.20;6.97;;;2.90;99.90;;;;;;4991511;28;20185;-76
2023/11/22 06:47:07;;;;;;;15.05;8.15;;;2.90;99.90;;;;;;4994450;28;20038;-77
2023/11/22 06:49:33;;;;;;;17.08;8.60;;;2.90;99.90;;;;;;4994640;28;20462;-77
2023/11/22 06:51:59;;;;;;;16.00;7.15;;;2.90;99.90;;;;;;4994770;28;20034;-76
2023/11/22 06:54:25;;;;;;;14.82;8.57;;;2.90;99.90;;;;;;4994300;28;20136;-76
2023/11/22 06:56:51;;;;;;;15.40;8.32;;;2.90;99.90;;;;;;4994034;28;20398;-76
2023/11/22 06:59:17;;;;;;;14.25;7.50;;;2.90;99.90;;;;;;4994040;28;20053;-77
2023/11/22 07:01:43;;;;;;;16.77;8.32;;;2.90;99.90;;;;;;4993957;28;20133;-77
2023/11/22 07:04:09;;;;;;;16.95;8.05;;;3.00;99.90;;;;;;4994284;28;20078;-76
2023/11/22 07:06:37;;;;;;;21.50;9.65;;;3.00;99.90;;;;;;4993663;28;20123;-77
2023/11/22 07:09:03;;;;;;;15.77;8.80;;;2.90;99.90;;;;;;4994457;28;20065;-77
2023/11/22 07:11:30;;;;;;;15.82;8.43;;;2.90;99.90;;;;;;4994018;28;20034;-76
2023/11/22 07:13:57;;;;;;;17.05;8.38;;;3.00;99.90;;;;;;4993810;28;20043;-77
2023/11/22 07:16:24;;;;;;;16.63;8.95;;;3.00;99.90;;;;;;4993467;28;20112;-76
2023/11/22 07:18:50;;;;;;;16.25;8.52;;;3.00;99.90;;;;;;4978269;28;20038;-77
2023/11/22 07:21:16;;;;;;;15.43;8.60;;;2.90;99.90;;;;;;4977460;28;20493;-76
2023/11/22 07:23:43;;;;;;;13.98;7.90;;;2.90;99.90;;;;;;4994060;28;20168;-76
2023/11/22 07:26:10;;;;;;;19.83;10.15;;;2.90;99.90;;;;;;4993577;28;20120;-76
2023/11/22 07:28:36;;;;;;;16.65;10.30;;;2.90;99.90;;;;;;4993541;28;20129;-76
2023/11/22 07:31:02;;;;;;;18.70;9.85;;;3.00;99.90;;;;;;4994659;28;20050;-76
2023/11/22 07:33:29;;;;;;;17.95;8.88;;;3.00;99.90;;;;;;4994029;28;20038;-77
2023/11/22 07:35:55;;;;;;;19.83;10.02;;;3.00;99.90;;;;;;4993656;28;20414;-77
2023/11/22 07:38:21;;;;;;;18.33;8.75;;;2.90;99.90;;;;;;4993500;28;20041;-76
2023/11/22 07:40:48;;;;;;;14.93;9.10;;;2.80;99.90;;;;;;4977338;28;20476;-76
2023/11/22 07:43:14;;;;;;;18.50;10.07;;;3.00;99.90;;;;;;5003655;28;20037;-76
2023/11/22 07:45:39;;;;;;;18.65;9.20;;;2.90;99.90;;;;;;5012142;28;20141;-77
2023/11/22 07:48:06;;;;;;;18.80;9.70;;;3.00;99.90;;;;;;5014620;28;20466;-77
2023/11/22 07:50:32;;;;;;;18.10;9.88;;;2.90;99.90;;;;;;5016825;28;20046;-77
2023/11/22 07:52:57;;;;;;;19.88;10.50;;;3.00;99.90;;;;;;5021104;28;20117;-77
2023/11/22 07:55:23;;;;;;;20.42;10.48;;;3.00;99.90;;;;;;5001900;28;20053;-77
2023/11/22 07:57:50;;;;;;;20.13;11.68;;;3.00;99.90;;;;;;5016700;28;20041;-76
2023/11/22 08:00:19;;;;;;;21.70;11.43;;;3.10;99.90;;;;;;5013053;28;20084;-77
2023/11/22 08:02:45;;;;;;;17.95;10.55;;;3.20;99.90;;;;;;5015389;28;20045;-77
2023/11/22 08:05:12;;;;;;;18.98;10.15;;;3.20;99.90;;;;;;4997433;28;20068;-77
2023/11/22 08:07:39;;;;;;;19.58;10.18;;;3.10;99.90;;;;;;5016947;28;20038;-77
2023/11/22 08:10:09;;;;;;;16.73;10.38;;;3.30;99.90;;;;;;5013367;28;20117;-76
2023/11/22 08:12:38;;;;;;;20.33;10.43;;;3.30;99.90;;;;;;5013971;28;20034;-77
2023/11/22 08:15:04;;;;;;;21.10;10.77;;;3.30;99.90;;;;;;5016866;28;20120;-76
2023/11/22 08:17:32;;;;;;;18.75;10.02;;;3.30;99.90;;;;;;4997362;28;20046;-77
2023/11/22 08:19:59;;;;;;;21.70;10.00;;;3.30;99.90;;;;;;5018679;28;20052;-77
2023/11/22 08:22:28;;;;;;;21.05;12.27;;;3.40;99.90;;;;;;5017206;28;20046;-76
2023/11/22 08:24:55;;;;;;;21.23;10.75;;;3.40;99.90;;;;;;5000891;28;20044;-77
2023/11/22 08:27:22;;;;;;;19.48;11.13;;;3.50;99.90;;;;;;5013561;28;20050;-77
2023/11/22 08:29:48;;;;;;;20.65;11.15;;;3.50;99.90;;;;;;5012123;28;20561;-77
2023/11/22 08:32:14;;;;;;;19.30;11.05;;;3.50;99.90;;;;;;5012369;28;20129;-77
2023/11/22 08:34:39;;;;;;;19.45;12.27;;;3.60;99.90;;;;;;5001738;28;20069;-76
2023/11/22 08:37:07;;;;;;;22.23;11.40;;;3.50;99.90;;;;;;5002319;28;20042;-77
2023/11/22 08:39:34;;;;;;;23.50;10.85;;;3.50;99.90;;;;;;5001582;28;20066;-77
2023/11/22 08:41:59;;;;;;;19.58;11.32;;;3.60;99.90;;;;;;5000185;28;20046;-77
2023/11/22 08:44:25;;;;;;;19.92;10.52;;;3.60;99.90;;;;;;5008558;28;20038;-77
2023/11/22 08:46:50;;;;;;;21.70;11.38;;;3.60;99.90;;;;;;5008158;28;20049;-79
2023/11/22 08:49:17;;;;;;;24.10;11.52;;;3.70;99.90;;;;;;5011103;28;20103;-77
2023/11/22 08:51:42;;;;;;;21.85;10.75;;;3.60;99.90;;;;;;5008611;28;20048;-77
2023/11/22 08:54:08;;;;;;;19.02;10.57;;;3.80;99.90;;;;;;5016222;28;20034;-77
2023/11/22 08:56:35;;;;;;;19.88;11.77;;;3.80;99.90;;;;;;4996115;28;20507;-76
2023/11/22 08:59:00;;;;;;;18.77;11.07;;;3.80;99.90;;;;;;5026758;28;20056;-78
2023/11/22 09:01:26;;;;;;;17.42;10.30;;;3.90;99.90;;;;;;5001963;28;20120;-77
2023/11/22 09:03:52;;;;;;;22.42;10.90;;;4.00;99.90;;;;;;4980250;28;20065;-77
2023/11/22 09:06:18;;;;;;;21.23;10.57;;;3.90;99.90;;;;;;5011828;28;20475;-77
2023/11/22 09:08:45;;;;;;;18.15;10.82;;;4.00;99.90;;;;;;4997162;28;20179;-77
2023/11/22 09:11:11;;;;;;;22.33;11.05;;;4.00;99.90;;;;;;5012122;28;20046;-77
2023/11/22 09:13:37;;;;;;;16.05;9.45;;;4.00;99.90;;;;;;5014479;28;20038;-77
2023/11/22 09:16:05;;;;;;;21.73;10.88;;;4.10;99.90;;;;;;5016740;28;20099;-77
2023/11/22 09:18:31;;;;;;;19.00;10.45;;;4.00;99.90;;;;;;5015668;28;20045;-77
2023/11/22 09:20:56;;;;;;;21.10;10.73;;;4.10;99.90;;;;;;5017594;28;20061;-78
2023/11/22 09:23:22;;;;;;;15.88;9.48;;;4.20;99.90;;;;;;5018888;28;20433;-77
2023/11/22 09:25:47;;;;;;;22.13;10.35;;;4.20;99.90;;;;;;5012146;28;20069;-77
2023/11/22 09:28:15;;;;;;;18.42;9.98;;;4.30;99.90;;;;;;5013747;28;20033;-77
2023/11/22 09:30:42;;;;;;;21.60;9.35;;;4.30;99.90;;;;;;5013212;28;20081;-77
2023/11/22 09:33:10;;;;;;;18.60;10.27;;;4.20;99.90;;;;;;5012852;28;20049;-77
2023/11/22 09:35:37;;;;;;;21.10;10.50;;;4.30;99.90;;;;;;5011077;28;20041;-77
2023/11/22 09:38:06;;;;;;;17.48;10.82;;;4.30;99.90;;;;;;5011550;28;20084;-76
2023/11/22 09:40:32;;;;;;;19.58;9.07;;;4.40;99.90;;;;;;5000045;28;20034;-77
2023/11/22 09:42:59;;;;;;;22.55;10.60;;;4.30;99.90;;;;;;5016050;28;20045;-77
2023/11/22 09:45:29;;;;;;;20.13;9.45;;;4.50;99.90;;;;;;5014872;28;20103;-77
2023/11/22 09:47:55;;;;;;;18.65;10.18;;;4.50;99.90;;;;;;5013953;28;20056;-77
2023/11/22 09:50:32;;;;;;;20.83;9.63;;;4.50;99.90;;;;;;5013063;28;20497;-77
2023/11/22 09:53:01;;;;;;;20.38;10.98;;;4.60;99.90;;;;;;5013367;28;20104;-77
2023/11/22 09:55:28;;;;;;;19.08;10.23;;;4.70;99.90;;;;;;5007244;28;20046;-78
2023/11/22 09:57:58;;;;;;;21.80;10.50;;;4.70;99.90;;;;;;5011837;28;20403;-78
2023/11/22 10:00:27;;;;;;;23.30;10.77;;;4.70;99.90;;;;;;5015847;28;20039;-78
2023/11/22 10:02:53;;;;;;;19.92;9.77;;;4.70;99.90;;;;;;5009022;28;20065;-77
2023/11/22 10:05:19;;;;;;;19.13;9.73;;;4.70;99.90;;;;;;5009576;28;20038;-76
2023/11/22 10:07:47;;;;;;;22.60;10.25;;;4.90;99.90;;;;;;5009695;28;20030;-77
2023/11/22 10:10:15;;;;;;;22.00;10.43;;;4.90;99.90;;;;;;5015845;28;20095;-80
2023/11/22 10:12:42;;;;;;;18.20;10.25;;;5.00;99.90;;;;;;5014073;28;20118;-77
2023/11/22 10:15:16;;;;;;;19.85;9.25;;;5.00;99.90;;;;;;5011388;28;20041;-76
2023/11/22 10:17:47;;;;;;;;;;;5.00;99.90;;;;;;5011771;28;20038;-76
2023/11/22 10:20:13;;;;;;;19.10;10.75;;;5.00;99.90;;;;;;5011800;28;20426;-77
2023/11/22 10:22:47;;;;;;;22.27;11.13;;;5.10;99.90;;;;;;5014915;28;20085;-76
2023/11/22 10:25:14;;;;;;;19.13;9.68;;;5.20;99.90;;;;;;5015396;28;20046;-77
2023/11/22 10:27:40;;;;;;;22.08;10.68;;;5.10;99.90;;;;;;4997912;28;20045;-76
2023/11/22 10:30:09;;;;;;;21.35;11.27;;;5.10;99.90;;;;;;5014154;28;20042;-76
2023/11/22 10:32:37;;;;;;;18.02;9.35;;;5.20;99.90;;;;;;5014403;28;20121;-76
2023/11/22 10:35:07;;;;;;;19.17;9.95;;;5.30;99.90;;;;;;5014130;28;20077;-76
2023/11/22 10:37:34;;;;;;;18.02;9.45;;;5.20;99.90;;;;;;5014843;28;20038;-76
2023/11/22 10:39:59;;;;;;;18.48;10.18;;;5.40;99.90;;;;;;5014782;28;20095;-76
2023/11/22 10:42:26;;;;;;;19.60;10.02;;;5.40;99.90;;;;;;5014490;28;20041;-76
2023/11/22 10:44:59;;;;;;;20.20;9.23;;;5.40;99.90;;;;;;5013864;28;20046;-76
2023/11/22 10:47:29;;;;;;;19.90;9.30;;;5.50;99.90;;;;;;4999665;28;20037;-78
2023/11/22 10:49:55;;;;;;;16.98;9.90;;;5.50;99.90;;;;;;5015849;28;20285;-76
2023/11/22 10:52:26;;;;;;;17.42;10.00;;;5.50;99.90;;;;;;4997875;28;20057;-76
2023/11/22 10:55:01;;;;;;;15.77;9.35;;;5.50;99.90;;;;;;5015886;28;20405;-78
2023/11/22 10:57:36;;;;;;;16.88;8.95;;;5.50;99.90;;;;;;5014001;28;20049;-77
2023/11/22 11:00:07;;;;;;;15.60;9.25;;;5.50;99.90;;;;;;5013795;28;20053;-77
2023/11/22 11:02:41;;;;;;;14.93;8.55;;;5.50;99.90;;;;;;5014047;28;20076;-77
2023/11/22 11:05:17;;;;;;;16.40;8.82;;;5.50;99.90;;;;;;5004944;28;20054;-77
2023/11/22 11:07:49;;;;;;;14.65;8.05;;;5.50;99.90;;;;;;5012074;28;20084;-77
2023/11/22 11:10:15;;;;;;;14.25;7.32;;;5.50;99.90;;;;;;5004505;28;20062;-77
2023/11/22 11:12:41;;;;;;;13.63;8.35;;;5.50;99.90;;;;;;4982426;28;20034;-76
2023/11/22 11:15:08;;;;;;;13.85;7.63;;;5.50;99.90;;;;;;4995397;28;20094;-77
2023/11/22 11:17:35;;;;;;;15.60;10.10;;;5.50;99.90;;;;;;4997960;28;20500;-77
2023/11/22 11:20:04;;;;;;;14.07;7.70;;;5.50;99.90;;;;;;4996586;28;20108;-77
2023/11/22 11:22:30;;;;;;;15.38;8.88;;;5.50;99.90;;;;;;4999188;28;20061;-78
2023/11/22 11:25:04;;;;;;;13.25;8.43;;;5.60;99.90;;;;;;5006115;28;20073;-77
2023/11/22 11:27:33;;;;;;;14.20;8.40;;;5.60;99.90;;;;;;5002271;28;20469;-78
2023/11/22 11:29:59;;;;;;;14.80;9.15;;;5.70;99.90;;;;;;4996542;28;20038;-77
2023/11/22 11:32:42;;;;;;;13.05;7.28;;;5.70;99.90;;;;;;4997483;28;20046;-77
2023/11/22 11:35:08;;;;;;;18.27;8.80;;;5.80;99.90;;;;;;4996292;28;20580;-77
2023/11/22 11:37:33;;;;;;;16.50;9.35;;;5.90;99.90;;;;;;5003891;28;20038;-79
2023/11/22 11:39:59;;;;;;;16.00;9.88;;;5.90;99.90;;;;;;5000495;28;20042;-77
2023/11/22 11:42:24;;;;;;;18.63;9.10;;;6.00;99.90;;;;;;4997007;28;20074;-77
2023/11/22 11:44:59;;;;;;;14.00;8.23;;;6.00;99.90;;;;;;4998823;28;20129;-77
2023/11/22 11:47:24;;;;;;;17.08;9.63;;;6.00;99.90;;;;;;4997987;28;20054;-78
2023/11/22 11:49:50;;;;;;;13.45;8.25;;;6.10;99.90;;;;;;4997815;28;20666;-77
2023/11/22 11:52:16;;;;;;;13.43;8.30;;;6.20;99.90;;;;;;4999232;28;20043;-77
2023/11/22 11:54:41;;;;;;;14.18;9.23;;;6.30;99.90;;;;;;4996588;28;20509;-77
2023/11/22 11:57:08;;;;;;;13.60;8.43;;;6.30;99.90;;;;;;5004425;28;20077;-79
2023/11/22 11:59:35;;;;;;;10.77;7.28;;;6.40;99.90;;;;;;4997377;28;20047;-78
2023/11/22 12:02:01;;;;;;;12.63;7.30;;;6.30;99.90;;;;;;4996137;28;20042;-76
2023/11/22 12:04:27;;;;;;;11.55;7.03;;;6.40;99.90;;;;;;4994272;28;20049;-77
2023/11/22 12:06:53;;;;;;;14.20;7.47;;;6.40;99.90;;;;;;4998500;28;20423;-78
2023/11/22 12:09:25;;;;;;;14.88;6.90;;;6.30;99.90;;;;;;4999982;28;20054;-77
2023/11/22 12:11:55;;;;;;;12.70;7.53;;;6.30;99.90;;;;;;4996489;28;20058;-77
2023/11/22 12:14:22;;;;;;;12.77;7.20;;;6.30;99.90;;;;;;4998688;28;20931;-76
2023/11/22 12:16:51;;;;;;;11.55;7.85;;;6.20;99.90;;;;;;5012944;28;20045;-77
2023/11/22 12:19:24;;;;;;;11.65;6.82;;;6.10;99.90;;;;;;5012722;28;20506;-76
2023/11/22 12:21:50;;;;;;;12.70;6.65;;;6.10;99.90;;;;;;5013188;28;20038;-77
2023/11/22 12:24:16;;;;;;;15.45;6.70;;;6.10;99.90;;;;;;5022251;28;20121;-77
2023/11/22 12:26:45;;;;;;;11.52;6.72;;;6.10;99.90;;;;;;5012702;28;20038;-80
2023/11/22 12:29:13;;;;;;;12.60;6.95;;;6.00;99.90;;;;;;5018446;28;20038;-79
2023/11/22 12:31:54;;;;;;;10.73;6.75;;;6.00;99.90;;;;;;5021383;28;20097;-79
2023/11/22 12:34:21;;;;;;;11.77;6.57;;;6.00;99.90;;;;;;5028677;28;20064;-79
2023/11/22 12:36:48;;;;;;;11.43;6.47;;;6.10;99.90;;;;;;5023542;28;20077;-80
2023/11/22 12:39:17;;;;;;;10.23;6.75;;;6.00;99.90;;;;;;5022477;28;20535;-81
2023/11/22 12:41:53;;;;;;;14.57;7.30;;;6.00;99.90;;;;;;5024527;28;20416;-79
2023/11/22 12:44:19;;;;;;;9.43;6.32;;;6.00;99.90;;;;;;5027255;28;20042;-79